sensor_id;sensor_type;location;lat;lon;timestamp;temperature;humidity
12959;DHT22;6544;51.666;6.634;2022-10-18T00:00:13;16.90;44.80
12959;DHT22;6544;51.666;6.634;2022-10-18T00:02:40;16.90;40.50
12959;DHT22;6544;51.666;6.634;2022-10-18T00:05:08;16.90;53.30
12959;DHT22;6544;51.666;6.634;2022-10-18T00:07:35;16.90;54.40
12959;DHT22;6544;51.666;6.634;2022-10-18T00:10:03;16.90;47.20
12959;DHT22;6544;51.666;6.634;2022-10-18T00:12:31;16.80;44.90
12959;DHT22;6544;51.666;6.634;2022-10-18T00:14:58;16.90;44.60
12959;DHT22;6544;51.666;6.634;2022-10-18T00:17:29;16.90;47.50
12959;DHT22;6544;51.666;6.634;2022-10-18T00:19:56;16.90;36.30
12959;DHT22;6544;51.666;6.634;2022-10-18T00:22:23;16.90;33.20
12959;DHT22;6544;51.666;6.634;2022-10-18T00:24:50;16.90;26.10
12959;DHT22;6544;51.666;6.634;2022-10-18T00:27:18;16.80;27.20
12959;DHT22;6544;51.666;6.634;2022-10-18T00:29:45;16.80;35.90
12959;DHT22;6544;51.666;6.634;2022-10-18T00:32:12;16.70;32.20
12959;DHT22;6544;51.666;6.634;2022-10-18T00:34:40;16.70;39.30
12959;DHT22;6544;51.666;6.634;2022-10-18T00:37:07;16.70;51.00
12959;DHT22;6544;51.666;6.634;2022-10-18T00:39:34;16.70;47.80
12959;DHT22;6544;51.666;6.634;2022-10-18T00:42:01;16.70;50.50
12959;DHT22;6544;51.666;6.634;2022-10-18T00:45:00;16.80;47.00
12959;DHT22;6544;51.666;6.634;2022-10-18T00:47:27;16.80;43.60
12959;DHT22;6544;51.666;6.634;2022-10-18T00:50:00;16.80;40.30
12959;DHT22;6544;51.666;6.634;2022-10-18T00:52:33;16.80;40.70
12959;DHT22;6544;51.666;6.634;2022-10-18T00:55:01;16.70;35.80
12959;DHT22;6544;51.666;6.634;2022-10-18T00:57:29;16.70;45.40
12959;DHT22;6544;51.666;6.634;2022-10-18T00:59:55;16.80;51.00
12959;DHT22;6544;51.666;6.634;2022-10-18T01:02:23;16.70;41.80
12959;DHT22;6544;51.666;6.634;2022-10-18T01:04:50;16.70;42.10
12959;DHT22;6544;51.666;6.634;2022-10-18T01:07:30;16.70;49.70
12959;DHT22;6544;51.666;6.634;2022-10-18T01:10:17;16.70;42.20
12959;DHT22;6544;51.666;6.634;2022-10-18T01:12:57;16.60;61.90
12959;DHT22;6544;51.666;6.634;2022-10-18T01:15:30;16.70;55.20
12959;DHT22;6544;51.666;6.634;2022-10-18T01:18:05;16.70;57.30
12959;DHT22;6544;51.666;6.634;2022-10-18T01:23:51;16.70;55.30
12959;DHT22;6544;51.666;6.634;2022-10-18T01:26:34;16.70;39.00
12959;DHT22;6544;51.666;6.634;2022-10-18T01:29:14;16.70;41.60
12959;DHT22;6544;51.666;6.634;2022-10-18T01:31:47;16.70;41.80
12959;DHT22;6544;51.666;6.634;2022-10-18T01:34:17;16.70;48.60
12959;DHT22;6544;51.666;6.634;2022-10-18T01:36:47;16.70;39.80
12959;DHT22;6544;51.666;6.634;2022-10-18T01:39:19;16.70;43.40
12959;DHT22;6544;51.666;6.634;2022-10-18T01:41:49;16.60;51.20
12959;DHT22;6544;51.666;6.634;2022-10-18T01:44:20;16.70;56.50
12959;DHT22;6544;51.666;6.634;2022-10-18T01:46:49;16.70;53.10
12959;DHT22;6544;51.666;6.634;2022-10-18T01:49:17;16.70;45.90
12959;DHT22;6544;51.666;6.634;2022-10-18T01:51:44;16.70;48.20
12959;DHT22;6544;51.666;6.634;2022-10-18T01:54:16;16.70;48.40
12959;DHT22;6544;51.666;6.634;2022-10-18T01:56:51;16.70;44.30
12959;DHT22;6544;51.666;6.634;2022-10-18T01:59:32;16.70;48.50
12959;DHT22;6544;51.666;6.634;2022-10-18T02:02:08;16.70;48.40
12959;DHT22;6544;51.666;6.634;2022-10-18T02:04:50;16.70;39.40
12959;DHT22;6544;51.666;6.634;2022-10-18T02:07:26;16.60;40.90
12959;DHT22;6544;51.666;6.634;2022-10-18T02:10:02;16.70;52.80
12959;DHT22;6544;51.666;6.634;2022-10-18T02:12:31;16.70;44.10
12959;DHT22;6544;51.666;6.634;2022-10-18T02:14:59;16.60;46.80
12959;DHT22;6544;51.666;6.634;2022-10-18T02:17:29;16.60;50.70
12959;DHT22;6544;51.666;6.634;2022-10-18T02:19:59;16.50;67.50
12959;DHT22;6544;51.666;6.634;2022-10-18T02:22:29;16.40;79.20
12959;DHT22;6544;51.666;6.634;2022-10-18T02:24:59;16.50;89.30
12959;DHT22;6544;51.666;6.634;2022-10-18T02:27:28;16.50;78.80
12959;DHT22;6544;51.666;6.634;2022-10-18T02:29:55;16.50;84.60
12959;DHT22;6544;51.666;6.634;2022-10-18T02:32:27;16.40;92.20
12959;DHT22;6544;51.666;6.634;2022-10-18T02:34:59;16.30;97.80
12959;DHT22;6544;51.666;6.634;2022-10-18T02:37:32;16.30;99.90
12959;DHT22;6544;51.666;6.634;2022-10-18T02:40:03;16.30;99.90
12959;DHT22;6544;51.666;6.634;2022-10-18T02:42:33;16.30;99.90
12959;DHT22;6544;51.666;6.634;2022-10-18T02:45:01;16.40;99.90
12959;DHT22;6544;51.666;6.634;2022-10-18T02:47:29;16.40;99.90
12959;DHT22;6544;51.666;6.634;2022-10-18T02:49:57;16.30;99.90
12959;DHT22;6544;51.666;6.634;2022-10-18T02:52:26;16.30;99.90
12959;DHT22;6544;51.666;6.634;2022-10-18T02:54:53;16.40;99.90
12959;DHT22;6544;51.666;6.634;2022-10-18T02:57:19;16.40;99.90
12959;DHT22;6544;51.666;6.634;2022-10-18T02:59:46;16.40;99.90
12959;DHT22;6544;51.666;6.634;2022-10-18T03:02:13;16.50;99.90
12959;DHT22;6544;51.666;6.634;2022-10-18T03:04:40;16.50;99.90
12959;DHT22;6544;51.666;6.634;2022-10-18T03:07:08;16.50;99.90
12959;DHT22;6544;51.666;6.634;2022-10-18T03:09:35;16.30;99.90
12959;DHT22;6544;51.666;6.634;2022-10-18T03:12:02;16.40;99.90
12959;DHT22;6544;51.666;6.634;2022-10-18T03:14:29;16.40;99.90
12959;DHT22;6544;51.666;6.634;2022-10-18T03:16:56;16.50;99.90
12959;DHT22;6544;51.666;6.634;2022-10-18T03:19:23;16.50;99.90
12959;DHT22;6544;51.666;6.634;2022-10-18T03:21:50;16.40;99.90
12959;DHT22;6544;51.666;6.634;2022-10-18T03:24:18;16.40;99.90
12959;DHT22;6544;51.666;6.634;2022-10-18T03:26:45;16.40;99.90
12959;DHT22;6544;51.666;6.634;2022-10-18T03:29:12;16.40;99.90
12959;DHT22;6544;51.666;6.634;2022-10-18T03:31:40;16.40;99.90
12959;DHT22;6544;51.666;6.634;2022-10-18T03:34:07;16.50;99.90
12959;DHT22;6544;51.666;6.634;2022-10-18T03:36:34;16.50;99.90
12959;DHT22;6544;51.666;6.634;2022-10-18T03:39:01;16.50;99.90
12959;DHT22;6544;51.666;6.634;2022-10-18T03:41:29;16.50;99.90
12959;DHT22;6544;51.666;6.634;2022-10-18T03:43:56;16.50;98.60
12959;DHT22;6544;51.666;6.634;2022-10-18T03:46:22;16.60;97.80
12959;DHT22;6544;51.666;6.634;2022-10-18T03:48:49;16.50;99.90
12959;DHT22;6544;51.666;6.634;2022-10-18T03:51:16;16.60;99.90
12959;DHT22;6544;51.666;6.634;2022-10-18T03:53:43;16.60;98.50
12959;DHT22;6544;51.666;6.634;2022-10-18T03:56:10;16.50;99.20
12959;DHT22;6544;51.666;6.634;2022-10-18T03:58:38;16.50;99.90
12959;DHT22;6544;51.666;6.634;2022-10-18T04:01:05;16.50;99.90
12959;DHT22;6544;51.666;6.634;2022-10-18T04:03:32;16.50;99.20
12959;DHT22;6544;51.666;6.634;2022-10-18T04:05:59;16.60;99.90
12959;DHT22;6544;51.666;6.634;2022-10-18T04:08:28;16.60;96.60
12959;DHT22;6544;51.666;6.634;2022-10-18T04:10:54;16.60;93.60
12959;DHT22;6544;51.666;6.634;2022-10-18T04:13:24;16.70;92.00
12959;DHT22;6544;51.666;6.634;2022-10-18T04:15:52;16.60;88.20
12959;DHT22;6544;51.666;6.634;2022-10-18T04:18:19;16.60;91.60
12959;DHT22;6544;51.666;6.634;2022-10-18T04:20:46;16.60;90.30
12959;DHT22;6544;51.666;6.634;2022-10-18T04:23:13;16.60;90.90
12959;DHT22;6544;51.666;6.634;2022-10-18T04:25:39;16.50;91.60
12959;DHT22;6544;51.666;6.634;2022-10-18T04:28:06;16.10;99.90
12959;DHT22;6544;51.666;6.634;2022-10-18T04:30:33;15.90;99.90
12959;DHT22;6544;51.666;6.634;2022-10-18T04:33:01;15.80;99.90
12959;DHT22;6544;51.666;6.634;2022-10-18T04:35:28;15.70;99.90
12959;DHT22;6544;51.666;6.634;2022-10-18T04:37:55;15.80;99.90
12959;DHT22;6544;51.666;6.634;2022-10-18T04:40:22;15.80;99.90
12959;DHT22;6544;51.666;6.634;2022-10-18T04:42:49;15.90;99.90
12959;DHT22;6544;51.666;6.634;2022-10-18T04:45:16;16.00;99.90
12959;DHT22;6544;51.666;6.634;2022-10-18T04:47:43;16.00;99.90
12959;DHT22;6544;51.666;6.634;2022-10-18T04:50:12;16.00;99.90
12959;DHT22;6544;51.666;6.634;2022-10-18T04:52:39;15.80;99.90
12959;DHT22;6544;51.666;6.634;2022-10-18T04:55:06;15.90;99.90
12959;DHT22;6544;51.666;6.634;2022-10-18T04:57:33;15.90;99.90
12959;DHT22;6544;51.666;6.634;2022-10-18T05:00:00;15.90;99.90
12959;DHT22;6544;51.666;6.634;2022-10-18T05:02:27;16.00;99.90
12959;DHT22;6544;51.666;6.634;2022-10-18T05:04:53;16.10;99.90
12959;DHT22;6544;51.666;6.634;2022-10-18T05:07:22;16.00;99.90
12959;DHT22;6544;51.666;6.634;2022-10-18T05:09:49;16.10;99.90
12959;DHT22;6544;51.666;6.634;2022-10-18T05:12:16;16.20;99.90
12959;DHT22;6544;51.666;6.634;2022-10-18T05:14:43;16.10;99.90
12959;DHT22;6544;51.666;6.634;2022-10-18T05:17:10;16.20;99.90
12959;DHT22;6544;51.666;6.634;2022-10-18T05:19:37;16.20;99.90
12959;DHT22;6544;51.666;6.634;2022-10-18T05:22:03;15.80;99.90
12959;DHT22;6544;51.666;6.634;2022-10-18T05:24:32;15.70;99.90
12959;DHT22;6544;51.666;6.634;2022-10-18T05:26:58;15.70;99.90
12959;DHT22;6544;51.666;6.634;2022-10-18T05:29:26;15.80;99.90
12959;DHT22;6544;51.666;6.634;2022-10-18T05:31:55;15.90;99.90
12959;DHT22;6544;51.666;6.634;2022-10-18T05:34:22;15.70;99.90
12959;DHT22;6544;51.666;6.634;2022-10-18T05:36:51;15.50;99.90
12959;DHT22;6544;51.666;6.634;2022-10-18T05:39:18;15.40;99.90
12959;DHT22;6544;51.666;6.634;2022-10-18T05:41:46;15.30;99.90
12959;DHT22;6544;51.666;6.634;2022-10-18T05:44:13;15.30;99.90
12959;DHT22;6544;51.666;6.634;2022-10-18T05:46:40;15.30;99.90
12959;DHT22;6544;51.666;6.634;2022-10-18T05:49:08;15.20;99.90
12959;DHT22;6544;51.666;6.634;2022-10-18T05:51:35;15.20;99.90
12959;DHT22;6544;51.666;6.634;2022-10-18T05:54:02;15.20;99.90
12959;DHT22;6544;51.666;6.634;2022-10-18T05:56:29;15.20;99.90
12959;DHT22;6544;51.666;6.634;2022-10-18T05:58:58;15.30;99.90
12959;DHT22;6544;51.666;6.634;2022-10-18T06:01:24;15.30;99.90
12959;DHT22;6544;51.666;6.634;2022-10-18T06:03:51;15.40;99.90
12959;DHT22;6544;51.666;6.634;2022-10-18T06:06:19;15.30;99.90
12959;DHT22;6544;51.666;6.634;2022-10-18T06:08:49;15.30;99.90
12959;DHT22;6544;51.666;6.634;2022-10-18T06:11:19;15.20;99.90
12959;DHT22;6544;51.666;6.634;2022-10-18T06:13:47;15.30;99.90
12959;DHT22;6544;51.666;6.634;2022-10-18T06:16:18;15.20;99.90
12959;DHT22;6544;51.666;6.634;2022-10-18T06:18:47;15.20;99.90
12959;DHT22;6544;51.666;6.634;2022-10-18T06:21:15;15.40;99.90
12959;DHT22;6544;51.666;6.634;2022-10-18T06:23:42;15.50;99.90
12959;DHT22;6544;51.666;6.634;2022-10-18T06:26:10;15.60;99.90
12959;DHT22;6544;51.666;6.634;2022-10-18T06:28:37;15.60;99.90
12959;DHT22;6544;51.666;6.634;2022-10-18T06:31:05;15.40;99.90
12959;DHT22;6544;51.666;6.634;2022-10-18T06:33:34;15.30;99.90
12959;DHT22;6544;51.666;6.634;2022-10-18T06:36:03;15.10;99.90
12959;DHT22;6544;51.666;6.634;2022-10-18T06:38:31;15.10;99.90
12959;DHT22;6544;51.666;6.634;2022-10-18T06:40:58;15.10;99.90
12959;DHT22;6544;51.666;6.634;2022-10-18T06:43:25;15.00;99.90
12959;DHT22;6544;51.666;6.634;2022-10-18T06:45:54;15.00;99.90
12959;DHT22;6544;51.666;6.634;2022-10-18T06:48:21;14.90;99.90
12959;DHT22;6544;51.666;6.634;2022-10-18T06:50:55;14.90;99.90
12959;DHT22;6544;51.666;6.634;2022-10-18T06:53:22;14.70;99.90
12959;DHT22;6544;51.666;6.634;2022-10-18T06:55:49;14.80;99.90
12959;DHT22;6544;51.666;6.634;2022-10-18T06:58:16;14.90;99.90
12959;DHT22;6544;51.666;6.634;2022-10-18T07:00:43;14.90;99.90
12959;DHT22;6544;51.666;6.634;2022-10-18T07:03:11;14.90;99.90
12959;DHT22;6544;51.666;6.634;2022-10-18T07:05:38;14.90;99.90
12959;DHT22;6544;51.666;6.634;2022-10-18T07:08:06;14.90;99.90
12959;DHT22;6544;51.666;6.634;2022-10-18T07:10:33;14.70;99.90
12959;DHT22;6544;51.666;6.634;2022-10-18T07:13:00;14.70;99.90
12959;DHT22;6544;51.666;6.634;2022-10-18T07:15:27;14.70;99.90
12959;DHT22;6544;51.666;6.634;2022-10-18T07:17:54;14.70;99.90
12959;DHT22;6544;51.666;6.634;2022-10-18T07:20:21;14.80;99.90
12959;DHT22;6544;51.666;6.634;2022-10-18T07:22:48;14.90;99.90
12959;DHT22;6544;51.666;6.634;2022-10-18T07:25:16;14.80;99.90
12959;DHT22;6544;51.666;6.634;2022-10-18T07:27:43;14.90;99.90
12959;DHT22;6544;51.666;6.634;2022-10-18T07:30:10;14.70;99.90
12959;DHT22;6544;51.666;6.634;2022-10-18T07:32:37;14.70;99.90
12959;DHT22;6544;51.666;6.634;2022-10-18T07:35:05;14.70;99.90
12959;DHT22;6544;51.666;6.634;2022-10-18T07:37:33;14.70;99.90
12959;DHT22;6544;51.666;6.634;2022-10-18T07:39:59;14.60;99.90
12959;DHT22;6544;51.666;6.634;2022-10-18T07:42:28;14.60;99.90
12959;DHT22;6544;51.666;6.634;2022-10-18T07:44:54;14.60;99.90
12959;DHT22;6544;51.666;6.634;2022-10-18T07:47:21;14.60;99.90
12959;DHT22;6544;51.666;6.634;2022-10-18T07:49:48;14.70;99.90
12959;DHT22;6544;51.666;6.634;2022-10-18T07:52:15;14.60;99.90
12959;DHT22;6544;51.666;6.634;2022-10-18T07:54:42;14.50;99.90
12959;DHT22;6544;51.666;6.634;2022-10-18T07:57:09;14.50;99.90
12959;DHT22;6544;51.666;6.634;2022-10-18T07:59:39;14.50;99.90
12959;DHT22;6544;51.666;6.634;2022-10-18T08:02:09;14.50;99.90
12959;DHT22;6544;51.666;6.634;2022-10-18T08:04:36;14.50;99.90
12959;DHT22;6544;51.666;6.634;2022-10-18T08:07:03;14.60;99.90
12959;DHT22;6544;51.666;6.634;2022-10-18T08:09:30;14.60;99.90
12959;DHT22;6544;51.666;6.634;2022-10-18T08:11:57;14.60;99.90
12959;DHT22;6544;51.666;6.634;2022-10-18T08:14:25;14.60;99.90
12959;DHT22;6544;51.666;6.634;2022-10-18T08:16:54;14.60;99.90
12959;DHT22;6544;51.666;6.634;2022-10-18T08:19:21;14.70;99.90
12959;DHT22;6544;51.666;6.634;2022-10-18T08:21:48;14.70;99.90
12959;DHT22;6544;51.666;6.634;2022-10-18T08:24:15;14.70;99.90
12959;DHT22;6544;51.666;6.634;2022-10-18T08:26:42;14.70;99.90
12959;DHT22;6544;51.666;6.634;2022-10-18T08:29:08;14.80;99.90
12959;DHT22;6544;51.666;6.634;2022-10-18T08:31:37;14.80;99.90
12959;DHT22;6544;51.666;6.634;2022-10-18T08:34:05;14.70;99.90
12959;DHT22;6544;51.666;6.634;2022-10-18T08:36:32;14.70;99.90
12959;DHT22;6544;51.666;6.634;2022-10-18T08:38:59;14.70;99.90
12959;DHT22;6544;51.666;6.634;2022-10-18T08:42:07;14.80;99.90
12959;DHT22;6544;51.666;6.634;2022-10-18T08:44:41;14.80;99.90
12959;DHT22;6544;51.666;6.634;2022-10-18T08:47:13;14.70;99.90
12959;DHT22;6544;51.666;6.634;2022-10-18T08:49:44;14.60;99.90
12959;DHT22;6544;51.666;6.634;2022-10-18T08:52:23;14.70;99.90
12959;DHT22;6544;51.666;6.634;2022-10-18T08:54:57;14.50;99.90
12959;DHT22;6544;51.666;6.634;2022-10-18T08:57:27;14.60;99.90
12959;DHT22;6544;51.666;6.634;2022-10-18T08:59:54;14.70;99.90
12959;DHT22;6544;51.666;6.634;2022-10-18T09:02:38;14.80;99.90
12959;DHT22;6544;51.666;6.634;2022-10-18T09:05:18;14.80;99.90
12959;DHT22;6544;51.666;6.634;2022-10-18T09:08:00;14.90;99.90
12959;DHT22;6544;51.666;6.634;2022-10-18T09:10:42;14.90;99.90
12959;DHT22;6544;51.666;6.634;2022-10-18T09:13:39;15.00;99.90
12959;DHT22;6544;51.666;6.634;2022-10-18T09:16:15;15.10;99.90
12959;DHT22;6544;51.666;6.634;2022-10-18T09:18:51;15.20;99.90
12959;DHT22;6544;51.666;6.634;2022-10-18T09:21:41;15.10;99.90
12959;DHT22;6544;51.666;6.634;2022-10-18T09:24:13;15.10;99.90
12959;DHT22;6544;51.666;6.634;2022-10-18T09:26:43;15.10;99.90
12959;DHT22;6544;51.666;6.634;2022-10-18T09:29:25;15.10;99.90
12959;DHT22;6544;51.666;6.634;2022-10-18T09:31:59;15.10;99.90
12959;DHT22;6544;51.666;6.634;2022-10-18T09:34:33;15.20;99.90
12959;DHT22;6544;51.666;6.634;2022-10-18T09:37:08;15.20;99.90
12959;DHT22;6544;51.666;6.634;2022-10-18T09:39:37;15.30;99.90
12959;DHT22;6544;51.666;6.634;2022-10-18T09:42:11;15.30;99.90
12959;DHT22;6544;51.666;6.634;2022-10-18T09:44:44;15.40;99.90
12959;DHT22;6544;51.666;6.634;2022-10-18T09:47:17;15.50;99.90
12959;DHT22;6544;51.666;6.634;2022-10-18T09:49:50;15.70;99.90
12959;DHT22;6544;51.666;6.634;2022-10-18T09:52:24;15.80;99.90
12959;DHT22;6544;51.666;6.634;2022-10-18T09:54:55;15.90;99.90
12959;DHT22;6544;51.666;6.634;2022-10-18T09:57:27;15.80;99.90
12959;DHT22;6544;51.666;6.634;2022-10-18T09:59:57;15.80;99.90
12959;DHT22;6544;51.666;6.634;2022-10-18T10:02:26;15.90;99.90
12959;DHT22;6544;51.666;6.634;2022-10-18T10:04:53;16.00;99.90
12959;DHT22;6544;51.666;6.634;2022-10-18T10:07:24;16.00;99.90
12959;DHT22;6544;51.666;6.634;2022-10-18T10:09:56;16.10;99.90
12959;DHT22;6544;51.666;6.634;2022-10-18T10:12:31;16.00;99.90
12959;DHT22;6544;51.666;6.634;2022-10-18T10:15:15;16.30;99.90
12959;DHT22;6544;51.666;6.634;2022-10-18T10:17:44;16.50;99.90
12959;DHT22;6544;51.666;6.634;2022-10-18T10:20:17;16.50;99.90
12959;DHT22;6544;51.666;6.634;2022-10-18T10:22:49;16.60;99.90
12959;DHT22;6544;51.666;6.634;2022-10-18T10:25:31;16.90;1.00
12959;DHT22;6544;51.666;6.634;2022-10-18T10:28:02;17.10;1.00
12959;DHT22;6544;51.666;6.634;2022-10-18T10:30:31;17.00;1.00
12959;DHT22;6544;51.666;6.634;2022-10-18T10:32:58;16.90;58.50
12959;DHT22;6544;51.666;6.634;2022-10-18T10:35:30;17.20;99.90
12959;DHT22;6544;51.666;6.634;2022-10-18T10:37:59;17.00;1.00
12959;DHT22;6544;51.666;6.634;2022-10-18T10:40:27;17.10;1.00
12959;DHT22;6544;51.666;6.634;2022-10-18T10:43:03;16.90;1.00
12959;DHT22;6544;51.666;6.634;2022-10-18T10:45:36;16.80;1.00
12959;DHT22;6544;51.666;6.634;2022-10-18T10:48:07;17.10;1.00
12959;DHT22;6544;51.666;6.634;2022-10-18T10:50:51;17.20;99.90
12959;DHT22;6544;51.666;6.634;2022-10-18T10:53:40;17.50;99.90
12959;DHT22;6544;51.666;6.634;2022-10-18T10:56:23;17.70;99.90
12959;DHT22;6544;51.666;6.634;2022-10-18T10:58:52;17.90;1.00
12959;DHT22;6544;51.666;6.634;2022-10-18T11:01:25;17.70;1.00
12959;DHT22;6544;51.666;6.634;2022-10-18T11:03:54;17.60;1.00
12959;DHT22;6544;51.666;6.634;2022-10-18T11:06:39;17.40;1.00
12959;DHT22;6544;51.666;6.634;2022-10-18T11:09:22;17.30;1.00
12959;DHT22;6544;51.666;6.634;2022-10-18T11:12:02;17.40;99.90
12959;DHT22;6544;51.666;6.634;2022-10-18T11:14:35;17.70;1.00
12959;DHT22;6544;51.666;6.634;2022-10-18T11:17:13;17.60;99.90
12959;DHT22;6544;51.666;6.634;2022-10-18T11:19:54;17.70;1.00
12959;DHT22;6544;51.666;6.634;2022-10-18T11:22:28;17.50;99.90
12959;DHT22;6544;51.666;6.634;2022-10-18T11:24:58;17.90;99.90
12959;DHT22;6544;51.666;6.634;2022-10-18T11:27:28;17.90;99.90
12959;DHT22;6544;51.666;6.634;2022-10-18T11:30:09;17.80;99.90
12959;DHT22;6544;51.666;6.634;2022-10-18T11:59:44;18.80;99.90
12959;DHT22;6544;51.666;6.634;2022-10-18T12:02:39;18.90;1.00
12959;DHT22;6544;51.666;6.634;2022-10-18T12:05:12;18.70;1.00
12959;DHT22;6544;51.666;6.634;2022-10-18T12:07:46;18.60;1.00
12959;DHT22;6544;51.666;6.634;2022-10-18T12:10:17;19.00;1.00
12959;DHT22;6544;51.666;6.634;2022-10-18T12:12:50;19.40;99.90
12959;DHT22;6544;51.666;6.634;2022-10-18T12:15:22;19.30;99.90
12959;DHT22;6544;51.666;6.634;2022-10-18T12:17:52;19.00;99.90
12959;DHT22;6544;51.666;6.634;2022-10-18T12:20:30;18.80;99.90
12959;DHT22;6544;51.666;6.634;2022-10-18T12:23:00;19.00;99.90
12959;DHT22;6544;51.666;6.634;2022-10-18T12:25:29;19.00;99.90
12959;DHT22;6544;51.666;6.634;2022-10-18T12:28:01;19.10;99.90
12959;DHT22;6544;51.666;6.634;2022-10-18T12:30:36;19.40;99.90
12959;DHT22;6544;51.666;6.634;2022-10-18T12:33:10;19.00;1.00
12959;DHT22;6544;51.666;6.634;2022-10-18T12:35:50;19.40;1.00
12959;DHT22;6544;51.666;6.634;2022-10-18T12:38:24;19.30;99.90
12959;DHT22;6544;51.666;6.634;2022-10-18T12:40:53;19.40;99.90
12959;DHT22;6544;51.666;6.634;2022-10-18T12:43:22;19.90;1.00
12959;DHT22;6544;51.666;6.634;2022-10-18T12:45:53;20.30;99.90
12959;DHT22;6544;51.666;6.634;2022-10-18T12:48:33;20.20;99.90
12959;DHT22;6544;51.666;6.634;2022-10-18T12:51:05;19.50;99.90
12959;DHT22;6544;51.666;6.634;2022-10-18T12:53:32;19.50;99.90
12959;DHT22;6544;51.666;6.634;2022-10-18T12:56:34;19.90;1.00
12959;DHT22;6544;51.666;6.634;2022-10-18T13:02:26;20.30;1.00
12959;DHT22;6544;51.666;6.634;2022-10-18T13:04:54;19.50;1.00
12959;DHT22;6544;51.666;6.634;2022-10-18T13:07:37;19.80;1.00
12959;DHT22;6544;51.666;6.634;2022-10-18T13:10:38;20.30;1.00
12959;DHT22;6544;51.666;6.634;2022-10-18T13:16:31;19.30;99.90
12959;DHT22;6544;51.666;6.634;2022-10-18T13:19:20;19.00;99.90
12959;DHT22;6544;51.666;6.634;2022-10-18T13:21:55;18.70;99.90
12959;DHT22;6544;51.666;6.634;2022-10-18T13:24:30;18.80;99.90
12959;DHT22;6544;51.666;6.634;2022-10-18T13:27:19;18.50;99.90
12959;DHT22;6544;51.666;6.634;2022-10-18T13:30:25;18.40;99.90
12959;DHT22;6544;51.666;6.634;2022-10-18T13:32:57;18.60;99.90
12959;DHT22;6544;51.666;6.634;2022-10-18T13:35:49;18.40;1.00
12959;DHT22;6544;51.666;6.634;2022-10-18T13:38:39;18.40;1.00
12959;DHT22;6544;51.666;6.634;2022-10-18T13:41:08;18.50;1.00
12959;DHT22;6544;51.666;6.634;2022-10-18T13:44:10;18.70;1.00
12959;DHT22;6544;51.666;6.634;2022-10-18T13:53:02;19.30;98.80
12959;DHT22;6544;51.666;6.634;2022-10-18T13:55:46;19.00;1.00
12959;DHT22;6544;51.666;6.634;2022-10-18T13:58:22;19.20;1.00
12959;DHT22;6544;51.666;6.634;2022-10-18T14:01:02;19.20;1.00
12959;DHT22;6544;51.666;6.634;2022-10-18T14:03:44;19.00;1.00
12959;DHT22;6544;51.666;6.634;2022-10-18T14:06:16;18.70;1.00
12959;DHT22;6544;51.666;6.634;2022-10-18T14:08:54;18.70;1.00
12959;DHT22;6544;51.666;6.634;2022-10-18T14:11:29;18.40;1.00
12959;DHT22;6544;51.666;6.634;2022-10-18T14:14:03;18.60;1.00
12959;DHT22;6544;51.666;6.634;2022-10-18T14:16:38;18.60;99.90
12959;DHT22;6544;51.666;6.634;2022-10-18T14:19:15;18.50;99.90
12959;DHT22;6544;51.666;6.634;2022-10-18T14:21:50;18.20;99.90
12959;DHT22;6544;51.666;6.634;2022-10-18T14:24:22;18.00;99.90
12959;DHT22;6544;51.666;6.634;2022-10-18T14:27:11;18.20;1.00
12959;DHT22;6544;51.666;6.634;2022-10-18T14:29:39;18.40;1.00
12959;DHT22;6544;51.666;6.634;2022-10-18T14:32:17;18.30;1.00
12959;DHT22;6544;51.666;6.634;2022-10-18T14:34:46;18.20;99.90
12959;DHT22;6544;51.666;6.634;2022-10-18T14:37:20;18.10;99.90
12959;DHT22;6544;51.666;6.634;2022-10-18T14:39:52;18.10;99.90
12959;DHT22;6544;51.666;6.634;2022-10-18T14:42:20;18.00;99.90
12959;DHT22;6544;51.666;6.634;2022-10-18T14:44:48;17.90;99.90
12959;DHT22;6544;51.666;6.634;2022-10-18T14:47:19;17.80;99.90
12959;DHT22;6544;51.666;6.634;2022-10-18T14:49:47;17.90;99.90
12959;DHT22;6544;51.666;6.634;2022-10-18T14:52:17;17.90;99.90
12959;DHT22;6544;51.666;6.634;2022-10-18T14:54:45;17.80;99.90
12959;DHT22;6544;51.666;6.634;2022-10-18T14:57:18;17.80;99.90
12959;DHT22;6544;51.666;6.634;2022-10-18T14:59:47;17.80;99.90
12959;DHT22;6544;51.666;6.634;2022-10-18T15:02:20;17.80;99.90
12959;DHT22;6544;51.666;6.634;2022-10-18T15:04:54;17.80;99.90
12959;DHT22;6544;51.666;6.634;2022-10-18T15:07:22;17.70;1.00
12959;DHT22;6544;51.666;6.634;2022-10-18T15:09:50;17.70;1.00
12959;DHT22;6544;51.666;6.634;2022-10-18T15:12:18;17.70;1.00
12959;DHT22;6544;51.666;6.634;2022-10-18T15:14:45;17.70;99.90
12959;DHT22;6544;51.666;6.634;2022-10-18T15:17:15;17.60;99.90
12959;DHT22;6544;51.666;6.634;2022-10-18T15:19:55;17.60;1.00
12959;DHT22;6544;51.666;6.634;2022-10-18T15:22:23;17.60;1.00
12959;DHT22;6544;51.666;6.634;2022-10-18T15:25:11;17.60;1.00
12959;DHT22;6544;51.666;6.634;2022-10-18T15:27:42;17.50;1.00
12959;DHT22;6544;51.666;6.634;2022-10-18T15:30:29;17.60;1.00
12959;DHT22;6544;51.666;6.634;2022-10-18T15:33:04;17.50;1.00
12959;DHT22;6544;51.666;6.634;2022-10-18T15:35:35;17.50;1.00
12959;DHT22;6544;51.666;6.634;2022-10-18T15:38:13;17.50;1.00
12959;DHT22;6544;51.666;6.634;2022-10-18T15:40:41;17.40;1.00
12959;DHT22;6544;51.666;6.634;2022-10-18T15:43:35;17.40;1.00
12959;DHT22;6544;51.666;6.634;2022-10-18T15:46:05;17.40;1.00
12959;DHT22;6544;51.666;6.634;2022-10-18T15:48:35;17.40;1.00
12959;DHT22;6544;51.666;6.634;2022-10-18T15:51:04;17.30;1.00
12959;DHT22;6544;51.666;6.634;2022-10-18T15:53:41;17.30;1.00
12959;DHT22;6544;51.666;6.634;2022-10-18T15:56:12;17.20;1.00
12959;DHT22;6544;51.666;6.634;2022-10-18T15:58:53;17.20;1.00
12959;DHT22;6544;51.666;6.634;2022-10-18T16:01:23;17.20;1.00
12959;DHT22;6544;51.666;6.634;2022-10-18T16:03:54;17.20;1.00
12959;DHT22;6544;51.666;6.634;2022-10-18T16:06:21;17.10;1.00
12959;DHT22;6544;51.666;6.634;2022-10-18T16:08:49;17.10;1.00
12959;DHT22;6544;51.666;6.634;2022-10-18T16:11:18;17.10;30.80
12959;DHT22;6544;51.666;6.634;2022-10-18T16:13:45;17.00;44.70
12959;DHT22;6544;51.666;6.634;2022-10-18T16:16:18;17.00;99.00
12959;DHT22;6544;51.666;6.634;2022-10-18T16:18:49;17.00;99.90
12959;DHT22;6544;51.666;6.634;2022-10-18T16:21:18;17.10;1.00
12959;DHT22;6544;51.666;6.634;2022-10-18T16:23:45;17.30;99.90
12959;DHT22;6544;51.666;6.634;2022-10-18T16:26:13;17.50;99.90
12959;DHT22;6544;51.666;6.634;2022-10-18T16:28:39;17.60;1.00
12959;DHT22;6544;51.666;6.634;2022-10-18T16:31:08;17.60;99.90
12959;DHT22;6544;51.666;6.634;2022-10-18T16:33:37;17.70;1.00
12959;DHT22;6544;51.666;6.634;2022-10-18T16:36:04;17.70;99.90
12959;DHT22;6544;51.666;6.634;2022-10-18T16:38:33;17.50;1.00
12959;DHT22;6544;51.666;6.634;2022-10-18T16:41:01;17.50;1.00
12959;DHT22;6544;51.666;6.634;2022-10-18T16:43:28;17.50;1.00
12959;DHT22;6544;51.666;6.634;2022-10-18T16:45:54;17.50;1.00
12959;DHT22;6544;51.666;6.634;2022-10-18T16:48:23;17.50;1.00
12959;DHT22;6544;51.666;6.634;2022-10-18T16:50:52;17.50;1.00
12959;DHT22;6544;51.666;6.634;2022-10-18T16:53:19;17.50;1.00
12959;DHT22;6544;51.666;6.634;2022-10-18T16:55:51;17.40;1.00
12959;DHT22;6544;51.666;6.634;2022-10-18T16:58:19;17.40;1.00